createdAt,value
2023-04-18T00:02:15.463Z,55.23
2023-04-18T00:04:43.418Z,55.06
2023-04-18T00:07:13.164Z,55.40
2023-04-18T00:09:41.056Z,55.69
2023-04-18T00:12:11.948Z,56.16
2023-04-18T00:14:40.910Z,55.80
2023-04-18T00:17:09.535Z,56.00
2023-04-18T00:19:41.404Z,56.30
2023-04-18T00:22:09.361Z,56.40
2023-04-18T00:24:37.215Z,56.95
2023-04-18T00:27:05.189Z,57.40
2023-04-18T00:29:34.334Z,57.76
2023-04-18T00:32:02.159Z,58.34
2023-04-18T00:34:29.974Z,58.73
2023-04-18T00:36:58.153Z,59.10
2023-04-18T00:39:25.951Z,59.59
2023-04-18T00:41:53.825Z,59.81
2023-04-18T00:44:21.826Z,59.90
2023-04-18T00:46:51.247Z,60.04
2023-04-18T00:49:19.114Z,60.69
2023-04-18T00:51:47.955Z,60.67
2023-04-18T00:54:18.588Z,61.05
2023-04-18T00:56:47.509Z,61.40
2023-04-18T00:59:15.614Z,61.34
2023-04-18T01:01:45.152Z,61.55
2023-04-18T01:04:14.983Z,61.81
2023-04-18T01:06:44.156Z,62.08
2023-04-18T01:09:12.673Z,62.89
2023-04-18T01:11:40.618Z,62.91
2023-04-18T01:14:09.680Z,63.22
2023-04-18T01:16:38.874Z,63.33
2023-04-18T01:19:06.980Z,63.48
2023-04-18T01:21:37.507Z,63.73
2023-04-18T01:24:11.152Z,63.83
2023-04-18T01:26:39.386Z,64.35
2023-04-18T01:29:07.366Z,64.52
2023-04-18T01:31:36.632Z,64.66
2023-04-18T01:34:04.614Z,65.00
2023-04-18T01:36:32.690Z,65.41
2023-04-18T01:39:00.745Z,65.53
2023-04-18T01:41:32.989Z,65.46
2023-04-18T01:44:01.612Z,65.64
2023-04-18T01:46:29.964Z,65.84
2023-04-18T01:48:58.481Z,65.98
2023-04-18T01:51:26.466Z,65.93
2023-04-18T01:53:54.436Z,66.11
2023-04-18T01:56:22.346Z,66.31
2023-04-18T01:58:51.566Z,66.26
2023-04-18T02:01:20.238Z,66.16
2023-04-18T02:03:48.350Z,66.16
2023-04-18T02:06:16.466Z,66.14
2023-04-18T02:08:44.291Z,66.71
2023-04-18T02:11:12.309Z,66.38
2023-04-18T02:13:40.176Z,66.81
2023-04-18T02:16:12.962Z,67.06
2023-04-18T02:18:41.484Z,67.40
2023-04-18T02:21:11.172Z,66.89
2023-04-18T02:23:39.101Z,67.09
2023-04-18T02:26:06.993Z,66.96
2023-04-18T02:28:34.851Z,67.16
2023-04-18T02:31:02.747Z,66.74
2023-04-18T02:33:32.044Z,66.85
2023-04-18T02:35:59.978Z,67.46
2023-04-18T02:38:44.887Z,67.68
2023-04-18T02:41:23.590Z,67.39
2023-04-18T02:43:51.456Z,67.70
2023-04-18T02:46:19.347Z,67.91
2023-04-18T02:48:48.861Z,68.05
2023-04-18T02:51:16.900Z,67.99
2023-04-18T02:53:44.742Z,67.96
2023-04-18T02:56:13.003Z,68.15
2023-04-18T02:58:40.862Z,68.08
2023-04-18T03:01:08.773Z,67.97
2023-04-18T03:03:36.627Z,68.26
2023-04-18T03:06:06.029Z,68.01
2023-04-18T03:08:33.870Z,68.45
2023-04-18T03:11:01.705Z,68.63
2023-04-18T03:13:29.471Z,68.26
2023-04-18T03:15:57.472Z,68.57
2023-04-18T03:18:25.328Z,68.51
2023-04-18T03:20:53.539Z,68.67
2023-04-18T03:23:22.880Z,68.51
2023-04-18T03:25:50.706Z,69.01
2023-04-18T03:28:18.454Z,69.02
2023-04-18T03:30:46.218Z,68.89
2023-04-18T03:33:14.902Z,69.00
2023-04-18T03:35:42.760Z,69.13
2023-04-18T03:38:10.542Z,69.13
2023-04-18T03:40:40.125Z,69.34
2023-04-18T03:43:07.888Z,69.50
2023-04-18T03:45:36.056Z,69.43
2023-04-18T03:48:04.727Z,69.59
2023-04-18T03:50:32.451Z,69.83
2023-04-18T03:53:00.774Z,69.65
2023-04-18T03:55:28.789Z,69.69
2023-04-18T03:57:59.127Z,70.00
2023-04-18T04:00:27.139Z,69.75
2023-04-18T04:02:55.091Z,70.09
2023-04-18T04:05:23.022Z,70.38
2023-04-18T04:07:50.891Z,70.36
2023-04-18T04:10:18.699Z,70.41
2023-04-18T04:12:46.909Z,70.63
2023-04-18T04:15:16.234Z,70.46
2023-04-18T04:17:44.256Z,70.62
2023-04-18T04:20:13.138Z,70.73
2023-04-18T04:22:41.490Z,70.65
2023-04-18T04:25:10.897Z,70.93
2023-04-18T04:27:38.981Z,70.74
2023-04-18T04:30:09.325Z,70.60
2023-04-18T04:32:39.399Z,71.03
2023-04-18T04:35:09.068Z,70.88
2023-04-18T04:37:37.063Z,71.08
2023-04-18T04:40:06.329Z,71.26
2023-04-18T04:42:34.625Z,71.39
2023-04-18T04:45:02.432Z,71.32
2023-04-18T04:47:30.394Z,71.38
2023-04-18T04:49:59.547Z,71.51
2023-04-18T04:52:27.394Z,71.57
2023-04-18T04:54:55.170Z,71.41
2023-04-18T04:57:22.882Z,71.24
2023-04-18T04:59:50.618Z,71.25
2023-04-18T05:02:18.367Z,71.89
2023-04-18T05:04:46.132Z,71.23
2023-04-18T05:07:15.207Z,71.66
2023-04-18T05:09:43.175Z,71.33
2023-04-18T05:12:10.974Z,71.26
2023-04-18T05:14:38.632Z,71.07
2023-04-18T05:17:14.096Z,71.30
2023-04-18T05:19:44.406Z,71.76
2023-04-18T05:22:12.234Z,71.51
2023-04-18T05:24:41.913Z,71.44
2023-04-18T05:27:09.876Z,71.33
2023-04-18T05:29:38.113Z,71.49
2023-04-18T05:32:06.662Z,71.17
2023-04-18T05:34:38.040Z,71.06
2023-04-18T05:37:06.508Z,71.24
2023-04-18T05:39:34.430Z,71.15
2023-04-18T05:42:03.664Z,71.26
2023-04-18T05:44:31.378Z,70.64
2023-04-18T05:46:59.059Z,71.01
2023-04-18T05:49:27.016Z,70.28
2023-04-18T05:51:56.425Z,70.17
2023-04-18T05:54:25.116Z,69.98
2023-04-18T05:56:53.172Z,69.86
2023-04-18T05:59:22.822Z,69.43
2023-04-18T06:01:51.407Z,69.14
2023-04-18T06:04:20.841Z,68.42
2023-04-18T06:06:49.039Z,68.12
2023-04-18T06:09:17.089Z,68.37
2023-04-18T06:11:44.885Z,68.06
2023-04-18T06:14:12.875Z,68.36
2023-04-18T06:16:42.300Z,67.63
2023-04-18T06:19:10.436Z,68.22
2023-04-18T06:21:38.249Z,68.10
2023-04-18T06:24:06.449Z,68.33
2023-04-18T06:26:34.474Z,68.05
2023-04-18T06:29:02.226Z,68.47
2023-04-18T06:31:30.103Z,67.80
2023-04-18T06:33:59.280Z,67.22
2023-04-18T06:36:27.937Z,67.46
2023-04-18T06:38:57.425Z,67.46
2023-04-18T06:41:25.186Z,67.40
2023-04-18T06:44:03.406Z,67.83
2023-04-18T06:46:32.525Z,67.46
2023-04-18T06:49:01.729Z,67.99
2023-04-18T06:51:29.559Z,67.20
2023-04-18T06:53:57.306Z,66.49
2023-04-18T06:56:25.095Z,66.79
2023-04-18T06:58:53.853Z,66.18
2023-04-18T07:01:21.952Z,66.32
2023-04-18T07:03:50.138Z,66.42
2023-04-18T07:06:19.411Z,66.02
2023-04-18T07:08:47.119Z,66.49
2023-04-18T07:11:15.606Z,66.76
2023-04-18T07:13:43.597Z,66.72
2023-04-18T07:16:11.326Z,66.63
2023-04-18T07:18:39.063Z,66.25
2023-04-18T07:21:08.096Z,67.01
2023-04-18T07:23:37.458Z,67.10
2023-04-18T07:26:06.434Z,66.11
2023-04-18T07:28:34.511Z,66.16
2023-04-18T07:31:03.761Z,65.84
2023-04-18T07:33:33.737Z,65.70
2023-04-18T07:36:02.599Z,65.24
2023-04-18T07:38:30.391Z,65.34
2023-04-18T07:41:00.635Z,65.11
2023-04-18T07:43:28.588Z,64.99
2023-04-18T07:45:56.693Z,65.10
2023-04-18T07:48:27.125Z,64.97
2023-04-18T07:50:55.192Z,65.29
2023-04-18T07:53:22.895Z,65.49
2023-04-18T07:55:51.309Z,65.02
2023-04-18T07:58:20.969Z,65.82
2023-04-18T08:00:48.741Z,65.04
2023-04-18T08:03:16.759Z,65.07
2023-04-18T08:05:45.017Z,65.96
2023-04-18T08:08:13.601Z,66.00
2023-04-18T08:10:41.343Z,65.79
2023-04-18T08:13:09.502Z,65.80
2023-04-18T08:15:39.092Z,65.18
2023-04-18T08:18:07.054Z,65.84
2023-04-18T08:20:36.310Z,65.62
2023-04-18T08:23:08.673Z,65.92
2023-04-18T08:25:38.306Z,65.26
2023-04-18T08:28:06.467Z,65.58
2023-04-18T08:30:34.326Z,65.38
2023-04-18T08:33:04.290Z,66.14
2023-04-18T08:35:32.169Z,66.21
2023-04-18T08:37:59.938Z,65.79
2023-04-18T08:40:27.731Z,65.93
2023-04-18T08:42:58.396Z,65.63
2023-04-18T08:45:26.201Z,65.87
2023-04-18T08:47:54.013Z,65.70
2023-04-18T08:50:23.386Z,64.12
2023-04-18T08:52:52.400Z,64.69
2023-04-18T08:55:22.270Z,64.11
2023-04-18T08:57:54.189Z,63.67
2023-04-18T09:00:23.772Z,63.52
2023-04-18T09:02:56.540Z,64.13
2023-04-18T09:05:27.625Z,64.12
2023-04-18T09:07:56.680Z,63.05
2023-04-18T09:10:29.777Z,63.40
2023-04-18T09:12:58.750Z,63.39
2023-04-18T09:15:29.168Z,64.03
2023-04-18T09:17:58.913Z,64.23
2023-04-18T09:20:37.749Z,64.28
2023-04-18T09:23:10.398Z,64.20
2023-04-18T09:25:45.108Z,63.88
2023-04-18T09:28:24.376Z,64.11
2023-04-18T09:30:53.180Z,64.03
2023-04-18T09:33:28.875Z,63.85
2023-04-18T09:36:17.605Z,63.56
2023-04-18T09:38:45.651Z,64.20
2023-04-18T09:41:15.776Z,64.40
2023-04-18T09:43:43.878Z,64.50
2023-04-18T09:46:12.682Z,64.82
2023-04-18T09:48:40.761Z,64.93
2023-04-18T09:51:11.640Z,64.83
2023-04-18T09:53:40.524Z,64.57
2023-04-18T09:56:13.766Z,64.83
2023-04-18T09:58:42.952Z,65.13
2023-04-18T10:01:13.218Z,65.09
2023-04-18T10:03:48.225Z,64.96
2023-04-18T10:06:18.252Z,64.70
2023-04-18T10:08:49.031Z,64.41
2023-04-18T10:11:18.578Z,65.17
2023-04-18T10:13:50.434Z,64.72
2023-04-18T10:16:18.592Z,65.05
2023-04-18T10:18:46.371Z,64.62
2023-04-18T10:21:14.075Z,65.35
2023-04-18T10:23:43.168Z,64.93
2023-04-18T10:26:11.820Z,64.42
2023-04-18T10:28:57.217Z,63.62
2023-04-18T10:31:26.494Z,63.70
2023-04-18T10:34:04.768Z,63.52
2023-04-18T10:36:34.036Z,62.60
2023-04-18T10:39:20.590Z,62.73
2023-04-18T10:41:51.090Z,62.66
2023-04-18T10:44:22.230Z,62.33
2023-04-18T10:47:31.952Z,62.35
2023-04-18T10:50:06.271Z,62.63
2023-04-18T10:52:34.662Z,63.01
2023-04-18T10:55:14.060Z,63.05
2023-04-18T10:57:43.852Z,62.96
2023-04-18T11:00:13.973Z,62.71
2023-04-18T11:02:49.012Z,62.58
2023-04-18T11:05:21.334Z,62.30
2023-04-18T11:07:49.794Z,62.06
2023-04-18T11:10:20.938Z,61.28
2023-04-18T11:12:49.412Z,60.71
2023-04-18T11:15:21.523Z,60.95
2023-04-18T11:17:56.419Z,60.71
2023-04-18T11:20:24.253Z,60.69
2023-04-18T11:22:53.318Z,60.34
2023-04-18T11:25:28.527Z,59.92
2023-04-18T11:27:59.482Z,60.00
2023-04-18T11:30:27.418Z,60.03
2023-04-18T11:32:56.031Z,60.22
2023-04-18T11:35:24.148Z,59.99
2023-04-18T11:37:52.126Z,60.58
2023-04-18T11:40:19.951Z,60.30
2023-04-18T11:42:49.111Z,60.55
2023-04-18T11:45:16.999Z,60.42
2023-04-18T11:47:46.361Z,60.80
2023-04-18T11:50:14.753Z,60.47
2023-04-18T11:52:43.614Z,59.90
2023-04-18T11:55:14.215Z,59.84
2023-04-18T11:57:42.592Z,59.68
2023-04-18T12:00:15.112Z,59.85
2023-04-18T12:02:43.966Z,59.46
2023-04-18T12:05:14.978Z,59.67
2023-04-18T12:07:45.236Z,59.63
2023-04-18T12:10:25.673Z,59.41
2023-04-18T12:12:54.624Z,59.13
2023-04-18T12:15:27.103Z,59.25
2023-04-18T12:17:59.291Z,58.92
2023-04-18T12:20:34.842Z,58.70
2023-04-18T12:23:03.478Z,58.41
2023-04-18T12:25:31.646Z,58.58
2023-04-18T12:28:01.641Z,58.55
2023-04-18T12:30:32.344Z,57.58
2023-04-18T12:33:01.685Z,57.80
2023-04-18T12:35:32.851Z,57.60
2023-04-18T12:38:02.215Z,57.65
2023-04-18T12:40:30.682Z,56.87
2023-04-18T12:42:59.487Z,56.23
2023-04-18T12:45:28.500Z,56.96
2023-04-18T12:47:57.781Z,55.77
2023-04-18T12:50:27.181Z,55.87
2023-04-18T12:52:56.372Z,56.15
2023-04-18T12:55:24.481Z,56.11
2023-04-18T12:57:54.459Z,56.20
2023-04-18T13:00:24.432Z,55.58
2023-04-18T13:02:52.877Z,55.44
2023-04-18T13:05:23.870Z,55.43
2023-04-18T13:07:58.732Z,55.83
2023-04-18T13:10:33.197Z,55.40
2023-04-18T13:13:00.925Z,55.48
2023-04-18T13:15:28.802Z,55.26
2023-04-18T13:17:57.265Z,55.14
2023-04-18T13:20:26.804Z,54.63
2023-04-18T13:22:54.576Z,54.40
2023-04-18T13:25:22.591Z,55.07
2023-04-18T13:27:51.202Z,54.53
2023-04-18T13:30:19.417Z,54.10
2023-04-18T13:32:47.321Z,53.88
2023-04-18T13:35:15.088Z,53.97
2023-04-18T13:37:44.953Z,53.71
2023-04-18T13:40:13.725Z,53.16
2023-04-18T13:42:41.528Z,53.62
2023-04-18T13:45:09.920Z,54.38
2023-04-18T13:47:38.398Z,54.01
2023-04-18T13:50:07.252Z,54.00
2023-04-18T13:52:35.296Z,54.21
2023-04-18T13:55:19.798Z,53.78
2023-04-18T13:57:47.618Z,53.86
2023-04-18T14:00:17.011Z,53.57
2023-04-18T14:02:45.145Z,53.83
2023-04-18T14:05:13.316Z,53.29
2023-04-18T14:07:41.305Z,53.02
2023-04-18T14:10:10.409Z,52.97
2023-04-18T14:12:39.921Z,52.53
2023-04-18T14:15:11.392Z,52.11
2023-04-18T14:17:39.193Z,51.51
2023-04-18T14:20:08.490Z,51.26
2023-04-18T14:22:36.348Z,50.61
2023-04-18T14:25:04.237Z,51.27
2023-04-18T14:27:32.865Z,51.42
2023-04-18T14:30:02.124Z,52.31
2023-04-18T14:32:30.514Z,52.55
2023-04-18T14:34:59.012Z,52.30
2023-04-18T14:37:26.715Z,53.09
2023-04-18T14:39:54.965Z,53.08
2023-04-18T14:42:22.737Z,52.68
2023-04-18T14:44:50.562Z,52.38
2023-04-18T14:47:19.911Z,52.45
2023-04-18T14:49:47.627Z,53.23
2023-04-18T14:52:15.437Z,52.20
2023-04-18T14:54:43.962Z,52.03
2023-04-18T14:57:12.917Z,51.57
2023-04-18T14:59:40.631Z,51.17
2023-04-18T15:02:08.478Z,50.70
2023-04-18T15:04:37.873Z,49.70
2023-04-18T15:07:06.260Z,50.09
2023-04-18T15:09:37.305Z,50.74
2023-04-18T15:12:05.798Z,50.72
2023-04-18T15:14:34.395Z,50.88
2023-04-18T15:17:02.934Z,50.45
2023-04-18T15:19:32.179Z,49.70
2023-04-18T15:22:01.647Z,49.61
2023-04-18T15:24:29.663Z,49.98
2023-04-18T15:26:58.764Z,50.27
2023-04-18T15:29:28.649Z,49.84
2023-04-18T15:31:56.525Z,50.28
2023-04-18T15:34:24.271Z,50.23
2023-04-18T15:36:52.137Z,50.68
2023-04-18T15:39:23.452Z,50.60
2023-04-18T15:41:54.633Z,50.58
2023-04-18T15:44:22.459Z,50.18
2023-04-18T15:46:51.145Z,50.27
2023-04-18T15:49:18.939Z,50.90
2023-04-18T15:51:46.697Z,50.95
2023-04-18T15:54:14.653Z,51.39
2023-04-18T15:56:44.756Z,51.91
2023-04-18T15:59:13.257Z,51.60
2023-04-18T16:01:41.075Z,52.67
2023-04-18T16:04:09.189Z,52.90
2023-04-18T16:06:37.485Z,52.89
2023-04-18T16:09:06.855Z,52.99
2023-04-18T16:11:34.669Z,53.75
2023-04-18T16:14:03.894Z,53.61
2023-04-18T16:16:31.747Z,53.63
2023-04-18T16:19:02.106Z,53.55
2023-04-18T16:21:29.994Z,53.17
2023-04-18T16:23:57.796Z,53.58
2023-04-18T16:26:26.022Z,53.40
2023-04-18T16:28:53.884Z,53.25
2023-04-18T16:31:23.104Z,52.85
2023-04-18T16:33:52.533Z,53.57
2023-04-18T16:36:20.643Z,54.03
2023-04-18T16:38:48.568Z,53.77
2023-04-18T16:41:16.524Z,53.78
2023-04-18T16:43:44.637Z,53.66
2023-04-18T16:46:13.837Z,53.61
2023-04-18T16:48:45.060Z,53.50
2023-04-18T16:51:13.168Z,53.69
2023-04-18T16:53:41.033Z,53.62
2023-04-18T16:56:09.303Z,54.05
2023-04-18T16:58:37.102Z,53.92
2023-04-18T17:01:04.854Z,54.12
2023-04-18T17:03:32.641Z,54.27
2023-04-18T17:06:02.219Z,54.18
2023-04-18T17:08:31.956Z,54.11
2023-04-18T17:11:02.242Z,54.25
2023-04-18T17:13:31.476Z,54.23
2023-04-18T17:15:59.350Z,54.14
2023-04-18T17:18:33.941Z,54.44
2023-04-18T17:21:22.689Z,54.70
2023-04-18T17:23:50.489Z,55.20
2023-04-18T17:26:18.864Z,54.80
2023-04-18T17:28:46.782Z,55.03
2023-04-18T17:31:17.447Z,55.37
2023-04-18T17:33:46.278Z,55.54
2023-04-18T17:36:16.043Z,55.27
2023-04-18T17:38:48.879Z,55.89
2023-04-18T17:41:17.604Z,55.56
2023-04-18T17:43:46.587Z,56.08
2023-04-18T17:46:15.099Z,56.32
2023-04-18T17:48:43.040Z,56.43
2023-04-18T17:51:10.827Z,56.80
2023-04-18T17:53:39.937Z,56.81
2023-04-18T17:56:07.655Z,56.89
2023-04-18T17:58:35.594Z,57.11
2023-04-18T18:01:15.052Z,57.33
2023-04-18T18:03:44.900Z,57.26
2023-04-18T18:06:13.930Z,57.55
2023-04-18T18:08:44.166Z,57.56
2023-04-18T18:11:12.072Z,57.54
2023-04-18T18:13:40.204Z,57.65
2023-04-18T18:16:09.114Z,57.73
2023-04-18T18:18:39.759Z,58.03
2023-04-18T18:21:07.564Z,58.32
2023-04-18T18:23:35.409Z,58.19
2023-04-18T18:26:06.588Z,58.68
2023-04-18T18:28:34.508Z,58.79
2023-04-18T18:31:02.512Z,58.96
2023-04-18T18:33:30.608Z,59.15
2023-04-18T18:35:58.721Z,58.95
2023-04-18T18:38:26.662Z,59.03
2023-04-18T18:40:56.200Z,59.16
2023-04-18T18:43:26.305Z,59.10
2023-04-18T18:45:54.956Z,59.52
2023-04-18T18:48:23.118Z,59.46
2023-04-18T18:50:51.365Z,59.60
2023-04-18T18:53:19.200Z,60.00
2023-04-18T18:55:46.929Z,59.92
2023-04-18T18:58:14.780Z,59.98
2023-04-18T19:00:43.897Z,60.19
2023-04-18T19:03:12.527Z,60.00
2023-04-18T19:05:40.749Z,60.44
2023-04-18T19:08:11.244Z,60.54
2023-04-18T19:10:39.131Z,60.39
2023-04-18T19:13:06.849Z,60.69
2023-04-18T19:15:34.778Z,60.71
2023-04-18T19:18:04.081Z,60.58
2023-04-18T19:20:31.871Z,60.63
2023-04-18T19:22:59.622Z,60.66
2023-04-18T19:25:27.384Z,60.66
2023-04-18T19:27:55.356Z,60.84
2023-04-18T19:30:23.265Z,60.91
2023-04-18T19:32:51.093Z,61.01
2023-04-18T19:35:21.632Z,60.86
2023-04-18T19:37:49.349Z,60.89
2023-04-18T19:40:17.351Z,60.96
2023-04-18T19:42:46.063Z,61.01
2023-04-18T19:45:15.092Z,60.54
2023-04-18T19:47:44.228Z,60.91
2023-04-18T19:50:12.455Z,60.91
2023-04-18T19:52:41.776Z,61.01
2023-04-18T19:55:10.523Z,61.02
2023-04-18T19:57:41.285Z,60.81
2023-04-18T20:00:11.497Z,61.05
2023-04-18T20:02:39.988Z,61.53
2023-04-18T20:05:09.641Z,61.26
2023-04-18T20:07:42.998Z,61.14
2023-04-18T20:10:11.346Z,61.68
2023-04-18T20:12:40.541Z,61.71
2023-04-18T20:15:12.497Z,61.90
2023-04-18T20:17:40.270Z,61.88
2023-04-18T20:20:10.963Z,61.78
2023-04-18T20:22:40.303Z,61.91
2023-04-18T20:25:10.020Z,61.79
2023-04-18T20:27:37.894Z,62.18
2023-04-18T20:30:07.141Z,62.22
2023-04-18T20:32:34.965Z,62.21
2023-04-18T20:35:04.406Z,62.32
2023-04-18T20:37:36.613Z,62.23
2023-04-18T20:40:07.974Z,62.21
2023-04-18T20:42:39.086Z,62.39
2023-04-18T20:45:40.359Z,62.27
2023-04-18T20:48:09.509Z,62.62
2023-04-18T20:50:40.280Z,62.62
2023-04-18T20:53:08.709Z,62.80
2023-04-18T20:55:36.535Z,62.62
2023-04-18T20:58:05.577Z,63.08
2023-04-18T21:00:33.321Z,63.35
2023-04-18T21:03:02.129Z,62.99
2023-04-18T21:05:30.038Z,63.38
2023-04-18T21:07:59.582Z,62.71
2023-04-18T21:10:27.308Z,63.03
2023-04-18T21:12:55.284Z,63.44
2023-04-18T21:15:24.475Z,62.90
2023-04-18T21:17:52.298Z,62.86
2023-04-18T21:20:20.487Z,63.14
2023-04-18T21:22:48.281Z,62.96
2023-04-18T21:25:16.454Z,62.84
2023-04-18T21:27:44.133Z,62.82
2023-04-18T21:30:12.432Z,63.05
2023-04-18T21:32:41.522Z,62.99
2023-04-18T21:35:09.985Z,62.93
2023-04-18T21:37:37.627Z,62.99
2023-04-18T21:40:06.408Z,63.17
2023-04-18T21:42:35.088Z,62.99
2023-04-18T21:45:02.848Z,63.43
2023-04-18T21:47:30.685Z,63.18
2023-04-18T21:49:59.782Z,63.42
2023-04-18T21:52:27.480Z,63.50
2023-04-18T21:54:55.180Z,63.46
2023-04-18T21:57:22.940Z,63.86
2023-04-18T21:59:50.594Z,63.61
2023-04-18T22:02:18.452Z,63.68
2023-04-18T22:04:48.058Z,64.38
2023-04-18T22:07:18.768Z,64.36
2023-04-18T22:09:46.891Z,64.29
2023-04-18T22:12:15.742Z,64.23
2023-04-18T22:14:48.109Z,64.37
2023-04-18T22:17:15.852Z,64.81
2023-04-18T22:19:44.922Z,64.40
2023-04-18T22:22:12.636Z,64.44
2023-04-18T22:24:41.675Z,64.79
2023-04-18T22:27:09.391Z,64.77
2023-04-18T22:29:37.067Z,64.49
2023-04-18T22:32:04.810Z,64.84
2023-04-18T22:34:32.463Z,64.75
2023-04-18T22:37:00.245Z,65.14
2023-04-18T22:39:28.018Z,64.67
2023-04-18T22:42:12.783Z,64.82
2023-04-18T22:44:40.458Z,65.18
2023-04-18T22:47:08.512Z,65.01
2023-04-18T22:49:36.164Z,65.23
2023-04-18T22:52:04.074Z,65.18
2023-04-18T22:54:31.765Z,64.95
2023-04-18T22:56:59.461Z,65.15
2023-04-18T22:59:28.532Z,65.36
2023-04-18T23:01:56.455Z,64.89
2023-04-18T23:04:24.452Z,65.00
2023-04-18T23:06:52.247Z,65.26
2023-04-18T23:09:20.012Z,65.66
2023-04-18T23:11:47.700Z,65.54
2023-04-18T23:14:15.696Z,65.66
2023-04-18T23:16:44.962Z,65.80
2023-04-18T23:19:12.628Z,65.69
2023-04-18T23:21:40.474Z,65.80
2023-04-18T23:24:08.747Z,66.58
2023-04-18T23:26:36.472Z,66.18
2023-04-18T23:29:04.239Z,66.24
2023-04-18T23:31:32.763Z,66.17
2023-04-18T23:34:02.012Z,65.88
2023-04-18T23:36:29.784Z,66.38
2023-04-18T23:38:57.479Z,66.49
2023-04-18T23:41:25.152Z,66.52
2023-04-18T23:43:52.855Z,66.55
2023-04-18T23:46:20.606Z,66.40
2023-04-18T23:48:48.399Z,66.77
2023-04-18T23:51:17.520Z,66.89
2023-04-18T23:53:45.292Z,67.02
2023-04-18T23:56:13.066Z,66.95
2023-04-18T23:58:41.069Z,67.05
